createdAt,value
2018-01-06T00:00:39.706Z,2.43
2018-01-06T00:03:07.284Z,2.37
2018-01-06T00:05:34.853Z,2.37
2018-01-06T00:08:02.477Z,2.31
2018-01-06T00:10:30.076Z,2.24
2018-01-06T00:12:57.666Z,2.15
2018-01-06T00:15:25.298Z,2.07
2018-01-06T00:17:52.885Z,1.98
2018-01-06T00:20:20.458Z,1.95
2018-01-06T00:22:48.047Z,1.99
2018-01-06T00:25:15.629Z,1.92
2018-01-06T00:27:43.209Z,1.87
2018-01-06T00:30:10.825Z,1.85
2018-01-06T00:32:38.404Z,1.80
2018-01-06T00:35:05.985Z,1.76
2018-01-06T00:37:33.586Z,1.69
2018-01-06T00:40:01.175Z,1.72
2018-01-06T00:42:28.757Z,1.75
2018-01-06T00:44:56.372Z,1.75
2018-01-06T00:47:23.930Z,1.76
2018-01-06T00:49:51.511Z,1.70
2018-01-06T00:52:19.101Z,1.73
2018-01-06T00:54:46.653Z,1.73
2018-01-06T00:57:14.232Z,1.72
2018-01-06T00:59:41.862Z,1.68
2018-01-06T01:02:09.477Z,1.68
2018-01-06T01:04:37.056Z,1.67
2018-01-06T01:07:04.674Z,1.63
2018-01-06T01:09:32.258Z,1.65
2018-01-06T01:11:59.833Z,1.61
2018-01-06T01:14:27.440Z,1.72
2018-01-06T01:16:55.007Z,1.82
2018-01-06T01:19:22.626Z,1.86
2018-01-06T01:21:50.224Z,1.87
2018-01-06T01:24:17.812Z,1.92
2018-01-06T01:26:45.401Z,1.93
2018-01-06T01:29:13.004Z,1.91
2018-01-06T01:31:40.594Z,1.82
2018-01-06T01:34:08.178Z,1.80
2018-01-06T01:36:35.811Z,1.77
2018-01-06T01:39:03.499Z,1.75
2018-01-06T01:41:31.087Z,1.67
2018-01-06T01:43:58.700Z,1.69
2018-01-06T01:46:32.038Z,1.70
2018-01-06T01:48:59.668Z,1.72
2018-01-06T01:51:27.257Z,1.75
2018-01-06T01:53:54.842Z,1.76
2018-01-06T01:56:22.461Z,1.77
2018-01-06T01:58:50.056Z,1.77
2018-01-06T02:01:17.651Z,1.77
2018-01-06T02:03:45.278Z,1.82
2018-01-06T02:06:12.862Z,1.87
2018-01-06T02:08:40.447Z,1.94
2018-01-06T02:11:08.067Z,1.98
2018-01-06T02:13:35.657Z,2.00
2018-01-06T02:16:03.247Z,2.09
2018-01-06T02:18:30.871Z,2.16
2018-01-06T02:20:58.500Z,2.20
2018-01-06T02:23:26.073Z,2.26
2018-01-06T02:25:53.689Z,2.30
2018-01-06T02:28:21.273Z,2.30
2018-01-06T02:30:48.852Z,2.23
2018-01-06T02:33:16.464Z,2.11
2018-01-06T02:35:44.074Z,2.02
2018-01-06T02:38:11.641Z,2.01
2018-01-06T02:40:39.259Z,2.03
2018-01-06T02:43:06.879Z,2.00
2018-01-06T02:45:34.455Z,2.00
2018-01-06T02:48:02.069Z,1.98
2018-01-06T02:50:29.644Z,1.97
2018-01-06T02:52:57.211Z,2.01
2018-01-06T02:55:24.840Z,2.06
2018-01-06T02:57:52.421Z,2.09
2018-01-06T03:00:19.991Z,2.08
2018-01-06T03:02:47.601Z,1.98
2018-01-06T03:05:15.205Z,1.90
2018-01-06T03:07:42.777Z,1.89
2018-01-06T03:10:10.393Z,1.87
2018-01-06T03:12:37.977Z,1.89
2018-01-06T03:15:05.550Z,1.96
2018-01-06T03:17:33.147Z,2.00
2018-01-06T03:20:00.769Z,2.05
2018-01-06T03:22:28.353Z,2.15
2018-01-06T03:24:55.949Z,2.16
2018-01-06T03:27:23.538Z,2.23
2018-01-06T03:29:51.114Z,2.20
2018-01-06T03:32:18.752Z,2.18
2018-01-06T03:34:46.350Z,2.16
2018-01-06T03:37:13.923Z,2.14
2018-01-06T03:39:41.541Z,2.19
2018-01-06T03:42:09.110Z,2.18
2018-01-06T03:44:36.691Z,2.16
2018-01-06T03:47:04.305Z,2.17
2018-01-06T03:49:31.883Z,2.19
2018-01-06T03:51:59.466Z,2.20
2018-01-06T03:54:27.091Z,2.21
2018-01-06T03:56:54.669Z,2.25
2018-01-06T03:59:22.271Z,2.25
2018-01-06T04:01:49.882Z,2.27
2018-01-06T04:04:17.476Z,2.29
2018-01-06T04:06:45.043Z,2.30
2018-01-06T04:09:12.641Z,2.29
2018-01-06T04:11:40.219Z,2.28
2018-01-06T04:14:07.789Z,2.33
2018-01-06T04:16:35.413Z,2.27
2018-01-06T04:19:02.997Z,2.29
2018-01-06T04:21:30.670Z,2.33
2018-01-06T04:23:58.297Z,2.32
2018-01-06T04:26:25.861Z,2.31
2018-01-06T04:28:53.424Z,2.34
2018-01-06T04:31:21.074Z,2.39
2018-01-06T04:33:48.633Z,2.39
2018-01-06T04:36:16.240Z,2.39
2018-01-06T04:38:43.841Z,2.43
2018-01-06T04:41:11.434Z,2.45
2018-01-06T04:43:39.009Z,2.48
2018-01-06T04:46:06.648Z,2.48
2018-01-06T04:48:34.241Z,2.46
2018-01-06T04:51:01.830Z,2.42
2018-01-06T04:53:29.431Z,2.35
2018-01-06T04:55:57.321Z,2.28
2018-01-06T04:58:24.905Z,2.27
2018-01-06T05:00:52.549Z,2.20
2018-01-06T05:03:20.101Z,2.10
2018-01-06T05:05:47.678Z,2.10
2018-01-06T05:08:15.302Z,2.04
2018-01-06T05:10:43.249Z,1.96
2018-01-06T05:13:10.871Z,1.93
2018-01-06T05:15:38.490Z,1.91
2018-01-06T05:18:06.084Z,1.89
2018-01-06T05:20:33.737Z,1.95
2018-01-06T05:23:01.373Z,2.03
2018-01-06T05:25:28.957Z,1.99
2018-01-06T05:27:56.540Z,1.95
2018-01-06T05:30:24.199Z,1.90
2018-01-06T05:32:52.677Z,1.80
2018-01-06T05:35:20.258Z,1.72
2018-01-06T05:37:49.331Z,1.58
2018-01-06T05:40:16.941Z,1.52
2018-01-06T05:42:44.525Z,1.53
2018-01-06T05:45:12.126Z,1.53
2018-01-06T05:47:39.687Z,1.64
2018-01-06T05:50:07.265Z,1.87
2018-01-06T05:52:34.855Z,2.01
2018-01-06T05:55:02.485Z,2.02
2018-01-06T05:57:30.032Z,1.97
2018-01-06T05:59:57.649Z,1.93
2018-01-06T06:02:25.263Z,1.87
2018-01-06T06:04:52.850Z,1.77
2018-01-06T06:07:20.480Z,1.71
2018-01-06T06:09:48.070Z,1.67
2018-01-06T06:12:15.671Z,1.72
2018-01-06T06:14:43.283Z,1.83
2018-01-06T06:17:10.881Z,1.94
2018-01-06T06:19:38.463Z,1.98
2018-01-06T06:22:06.115Z,1.99
2018-01-06T06:24:33.754Z,1.99
2018-01-06T06:27:01.329Z,1.96
2018-01-06T06:29:28.951Z,1.92
2018-01-06T06:31:56.541Z,1.97
2018-01-06T06:34:24.124Z,2.00
2018-01-06T06:36:51.751Z,2.00
2018-01-06T06:39:19.352Z,2.00
2018-01-06T06:41:46.934Z,2.27
2018-01-06T06:44:14.549Z,3.10
2018-01-06T06:46:42.131Z,4.50
2018-01-06T06:49:09.731Z,5.71
2018-01-06T06:51:37.455Z,6.67
2018-01-06T06:54:05.040Z,7.51
2018-01-06T06:56:32.629Z,8.38
2018-01-06T06:59:00.268Z,9.56
2018-01-06T07:01:27.881Z,10.39
2018-01-06T07:03:55.464Z,10.78
2018-01-06T07:06:23.065Z,11.52
2018-01-06T07:08:50.645Z,11.76
2018-01-06T07:11:18.233Z,12.22
2018-01-06T07:13:45.871Z,12.44
2018-01-06T07:16:13.460Z,12.47
2018-01-06T07:18:41.054Z,12.89
2018-01-06T07:21:08.701Z,13.55
2018-01-06T07:23:36.285Z,13.27
2018-01-06T07:26:04.024Z,12.76
2018-01-06T07:28:31.642Z,12.43
2018-01-06T07:30:59.237Z,12.76
2018-01-06T07:33:26.850Z,12.77
2018-01-06T07:35:54.488Z,13.14
2018-01-06T07:38:22.061Z,13.29
2018-01-06T07:40:49.665Z,13.29
2018-01-06T07:43:17.294Z,13.56
2018-01-06T07:45:44.879Z,13.88
2018-01-06T07:48:12.465Z,14.31
2018-01-06T07:50:40.104Z,14.52
2018-01-06T07:53:07.685Z,14.18
2018-01-06T07:55:35.260Z,14.64
2018-01-06T07:58:02.902Z,14.94
2018-01-06T08:00:30.488Z,14.90
2018-01-06T08:02:58.082Z,14.90
2018-01-06T08:05:25.740Z,15.09
2018-01-06T08:07:53.375Z,15.18
2018-01-06T08:10:20.940Z,15.60
2018-01-06T08:12:48.578Z,15.29
2018-01-06T08:15:16.185Z,15.90
2018-01-06T08:17:43.768Z,15.99
2018-01-06T08:20:11.399Z,16.29
2018-01-06T08:22:39.013Z,16.36
2018-01-06T08:25:06.604Z,16.14
2018-01-06T08:27:34.245Z,16.62
2018-01-06T08:30:01.830Z,17.27
2018-01-06T08:32:29.421Z,17.06
2018-01-06T08:34:57.079Z,17.36
2018-01-06T08:37:24.684Z,17.79
2018-01-06T08:39:52.263Z,17.86
2018-01-06T08:42:19.875Z,17.63
2018-01-06T08:44:47.439Z,17.73
2018-01-06T08:47:15.038Z,17.84
2018-01-06T08:49:42.663Z,17.80
2018-01-06T08:52:10.220Z,17.71
2018-01-06T08:54:37.809Z,17.84
2018-01-06T08:57:05.444Z,18.03
2018-01-06T08:59:33.040Z,18.68
2018-01-06T09:02:00.613Z,18.56
2018-01-06T09:04:28.255Z,18.70
2018-01-06T09:06:55.850Z,19.40
2018-01-06T09:09:23.494Z,19.41
2018-01-06T09:11:51.132Z,19.68
2018-01-06T09:14:18.734Z,20.03
2018-01-06T09:16:46.330Z,20.19
2018-01-06T09:19:13.961Z,21.03
2018-01-06T09:21:42.483Z,21.17
2018-01-06T09:24:10.058Z,21.16
2018-01-06T09:26:37.687Z,21.86
2018-01-06T09:29:05.281Z,21.94
2018-01-06T09:31:32.881Z,21.85
2018-01-06T09:34:00.508Z,22.09
2018-01-06T09:36:28.075Z,22.36
2018-01-06T09:38:55.654Z,22.61
2018-01-06T09:41:23.243Z,22.64
2018-01-06T09:43:50.813Z,23.11
2018-01-06T09:46:18.400Z,23.01
2018-01-06T09:48:46.030Z,22.68
2018-01-06T09:51:13.628Z,23.23
2018-01-06T09:53:41.232Z,23.42
2018-01-06T09:56:08.854Z,23.46
2018-01-06T09:58:36.437Z,23.98
2018-01-06T10:01:04.027Z,25.03
2018-01-06T10:03:31.674Z,24.02
2018-01-06T10:05:59.261Z,24.51
2018-01-06T10:08:26.839Z,24.64
2018-01-06T10:10:54.460Z,24.68
2018-01-06T10:13:22.069Z,24.48
2018-01-06T10:15:49.711Z,25.09
2018-01-06T10:18:17.354Z,25.47
2018-01-06T10:20:44.951Z,25.67
2018-01-06T10:23:12.532Z,25.64
2018-01-06T10:25:40.179Z,26.34
2018-01-06T10:28:07.798Z,26.82
2018-01-06T10:30:35.373Z,27.01
2018-01-06T10:33:03.010Z,27.30
2018-01-06T10:35:30.607Z,27.90
2018-01-06T10:37:58.391Z,27.40
2018-01-06T10:40:26.033Z,27.40
2018-01-06T10:42:53.724Z,27.73
2018-01-06T10:45:21.382Z,28.25
2018-01-06T10:47:54.550Z,28.35
2018-01-06T10:50:22.132Z,29.68
2018-01-06T10:52:49.721Z,29.62
2018-01-06T10:55:17.362Z,29.20
2018-01-06T10:57:44.938Z,29.25
2018-01-06T11:00:12.501Z,29.12
2018-01-06T11:02:40.189Z,28.69
2018-01-06T11:05:07.776Z,29.33
2018-01-06T11:07:35.368Z,29.85
2018-01-06T11:10:02.981Z,28.80
2018-01-06T11:12:30.665Z,28.50
2018-01-06T11:14:58.264Z,29.18
2018-01-06T11:17:25.864Z,28.85
2018-01-06T11:19:53.451Z,28.52
2018-01-06T11:22:21.016Z,28.31
2018-01-06T11:24:48.645Z,29.00
2018-01-06T11:27:16.318Z,27.13
2018-01-06T11:29:43.879Z,27.43
2018-01-06T11:32:12.866Z,28.21
2018-01-06T11:34:40.508Z,28.20
2018-01-06T11:37:08.092Z,27.64
2018-01-06T11:39:35.702Z,27.10
2018-01-06T11:42:03.269Z,27.61
2018-01-06T11:44:30.844Z,27.92
2018-01-06T11:46:58.492Z,28.37
2018-01-06T11:49:26.436Z,27.94
2018-01-06T11:51:54.020Z,27.71
2018-01-06T11:54:21.653Z,28.52
2018-01-06T11:56:49.325Z,29.09
2018-01-06T11:59:16.884Z,28.46
2018-01-06T12:01:44.508Z,28.09
2018-01-06T12:04:12.163Z,28.02
2018-01-06T12:06:39.746Z,28.34
2018-01-06T12:09:07.403Z,27.19
2018-01-06T12:11:34.961Z,27.43
2018-01-06T12:14:02.571Z,28.43
2018-01-06T12:16:30.218Z,27.72
2018-01-06T12:18:57.819Z,28.18
2018-01-06T12:21:25.408Z,28.46
2018-01-06T12:23:53.004Z,29.34
2018-01-06T12:26:20.597Z,29.57
2018-01-06T12:28:48.182Z,29.25
2018-01-06T12:31:15.819Z,28.68
2018-01-06T12:33:43.429Z,29.74
2018-01-06T12:36:11.007Z,30.40
2018-01-06T12:38:38.640Z,28.24
2018-01-06T12:41:06.227Z,27.68
2018-01-06T12:43:33.811Z,27.35
2018-01-06T12:46:01.418Z,27.67
2018-01-06T12:48:29.002Z,28.07
2018-01-06T12:50:56.560Z,28.05
2018-01-06T12:53:24.287Z,28.16
2018-01-06T12:55:51.865Z,27.91
2018-01-06T12:58:19.452Z,27.80
2018-01-06T13:00:47.045Z,27.51
2018-01-06T13:03:15.821Z,27.80
2018-01-06T13:05:43.386Z,26.90
2018-01-06T13:08:11.003Z,26.11
2018-01-06T13:10:38.572Z,25.76
2018-01-06T13:13:06.131Z,26.32
2018-01-06T13:15:33.759Z,26.85
2018-01-06T13:18:01.310Z,27.11
2018-01-06T13:20:28.877Z,27.23
2018-01-06T13:22:56.491Z,26.51
2018-01-06T13:25:24.034Z,25.88
2018-01-06T13:27:51.615Z,26.56
2018-01-06T13:30:19.287Z,26.16
2018-01-06T13:32:47.140Z,26.32
2018-01-06T13:35:14.702Z,27.07
2018-01-06T13:37:42.374Z,26.98
2018-01-06T13:40:09.941Z,25.95
2018-01-06T13:42:37.540Z,26.14
2018-01-06T13:45:05.116Z,26.44
2018-01-06T13:47:32.777Z,26.39
2018-01-06T13:50:00.392Z,25.35
2018-01-06T13:52:28.102Z,25.53
2018-01-06T13:54:55.655Z,25.43
2018-01-06T13:57:23.221Z,25.15
2018-01-06T13:59:50.800Z,24.55
2018-01-06T14:02:18.365Z,24.22
2018-01-06T14:04:45.914Z,23.50
2018-01-06T14:07:13.526Z,23.46
2018-01-06T14:09:41.074Z,23.11
2018-01-06T14:12:08.637Z,23.22
2018-01-06T14:14:36.247Z,23.52
2018-01-06T14:17:03.880Z,23.05
2018-01-06T14:19:31.432Z,22.42
2018-01-06T14:21:59.017Z,20.82
2018-01-06T14:24:26.560Z,20.03
2018-01-06T14:26:54.144Z,19.10
2018-01-06T14:29:21.751Z,18.32
2018-01-06T14:31:49.513Z,17.95
2018-01-06T14:34:17.080Z,17.52
2018-01-06T14:36:44.682Z,17.18
2018-01-06T14:39:12.459Z,16.94
2018-01-06T14:41:40.112Z,16.57
2018-01-06T14:44:07.781Z,16.43
2018-01-06T14:46:35.352Z,16.36
2018-01-06T14:49:03.099Z,16.23
2018-01-06T14:51:30.657Z,16.08
2018-01-06T14:53:58.430Z,15.91
2018-01-06T14:56:26.037Z,15.86
2018-01-06T14:58:53.667Z,15.87
2018-01-06T15:01:21.286Z,15.74
2018-01-06T15:03:48.882Z,15.67
2018-01-06T15:06:16.459Z,15.61
2018-01-06T15:08:44.080Z,15.44
2018-01-06T15:11:11.670Z,15.40
2018-01-06T15:13:39.234Z,15.30
2018-01-06T15:16:06.783Z,15.27
2018-01-06T15:18:34.383Z,15.19
2018-01-06T15:21:02.118Z,15.10
2018-01-06T15:23:29.779Z,15.04
2018-01-06T15:25:57.401Z,14.90
2018-01-06T15:28:25.076Z,14.90
2018-01-06T15:30:52.789Z,14.78
2018-01-06T15:33:20.608Z,14.71
2018-01-06T15:35:48.507Z,14.65
2018-01-06T15:38:16.470Z,14.56
2018-01-06T15:40:44.093Z,14.52
2018-01-06T15:43:12.093Z,14.39
2018-01-06T15:45:39.665Z,14.28
2018-01-06T15:48:07.630Z,14.16
2018-01-06T15:50:35.294Z,14.20
2018-01-06T15:53:02.941Z,14.05
2018-01-06T15:55:30.687Z,14.08
2018-01-06T15:57:58.239Z,14.01
2018-01-06T16:00:25.800Z,13.89
2018-01-06T16:02:53.409Z,13.72
2018-01-06T16:05:20.979Z,13.77
2018-01-06T16:07:48.720Z,13.72
2018-01-06T16:10:16.322Z,13.72
2018-01-06T16:12:44.048Z,13.67
2018-01-06T16:15:11.621Z,13.56
2018-01-06T16:17:39.259Z,13.54
2018-01-06T16:20:06.849Z,13.49
2018-01-06T16:22:34.545Z,13.46
2018-01-06T16:25:02.344Z,13.41
2018-01-06T16:27:29.908Z,13.33
2018-01-06T16:29:57.680Z,13.27
2018-01-06T16:32:25.296Z,13.32
2018-01-06T16:34:52.906Z,13.30
2018-01-06T16:37:20.473Z,13.29
2018-01-06T16:39:48.092Z,13.30
2018-01-06T16:42:15.676Z,13.13
2018-01-06T16:44:43.446Z,13.07
2018-01-06T16:47:11.099Z,12.77
2018-01-06T16:49:38.783Z,12.76
2018-01-06T16:52:06.347Z,12.74
2018-01-06T16:54:33.968Z,12.58
2018-01-06T16:57:01.558Z,12.42
2018-01-06T16:59:29.206Z,12.30
2018-01-06T17:01:56.823Z,12.17
2018-01-06T17:04:24.396Z,12.14
2018-01-06T17:06:51.977Z,12.01
2018-01-06T17:09:19.641Z,11.73
2018-01-06T17:11:47.323Z,11.43
2018-01-06T17:14:15.188Z,11.15
2018-01-06T17:16:42.789Z,10.85
2018-01-06T17:19:10.522Z,10.73
2018-01-06T17:21:38.094Z,10.65
2018-01-06T17:24:05.710Z,10.66
2018-01-06T17:26:33.302Z,10.53
2018-01-06T17:29:00.884Z,10.42
2018-01-06T17:31:28.525Z,10.27
2018-01-06T17:33:56.088Z,10.21
2018-01-06T17:36:23.650Z,10.42
2018-01-06T17:38:51.257Z,10.31
2018-01-06T17:41:18.847Z,10.13
2018-01-06T17:43:46.534Z,10.01
2018-01-06T17:46:14.147Z,9.73
2018-01-06T17:48:41.908Z,9.60
2018-01-06T17:51:09.489Z,9.51
2018-01-06T17:53:37.096Z,9.31
2018-01-06T17:56:04.640Z,9.22
2018-01-06T17:58:32.216Z,9.29
2018-01-06T18:00:59.946Z,9.25
2018-01-06T18:03:27.627Z,9.29
2018-01-06T18:05:55.205Z,9.06
2018-01-06T18:08:22.803Z,8.94
2018-01-06T18:10:50.367Z,9.20
2018-01-06T18:13:17.937Z,9.41
2018-01-06T18:15:45.524Z,9.47
2018-01-06T18:18:13.108Z,9.44
2018-01-06T18:20:40.829Z,9.19
2018-01-06T18:23:08.451Z,8.96
2018-01-06T18:25:36.047Z,8.53
2018-01-06T18:28:03.633Z,8.24
2018-01-06T18:30:31.237Z,8.05
2018-01-06T18:32:58.812Z,7.84
2018-01-06T18:35:26.371Z,7.63
2018-01-06T18:37:53.963Z,7.47
2018-01-06T18:40:21.563Z,7.24
2018-01-06T18:42:49.139Z,7.02
2018-01-06T18:45:16.904Z,6.77
2018-01-06T18:47:44.626Z,6.62
2018-01-06T18:50:12.192Z,6.47
2018-01-06T18:52:39.802Z,6.33
2018-01-06T18:55:07.377Z,6.21
2018-01-06T18:57:34.944Z,6.13
2018-01-06T19:00:02.566Z,6.10
2018-01-06T19:02:30.150Z,5.95
2018-01-06T19:04:57.713Z,5.81
2018-01-06T19:07:25.309Z,5.73
2018-01-06T19:09:52.873Z,5.71
2018-01-06T19:12:20.428Z,5.56
2018-01-06T19:14:48.040Z,5.34
2018-01-06T19:17:15.594Z,5.31
2018-01-06T19:19:43.175Z,5.19
2018-01-06T19:22:10.776Z,5.07
2018-01-06T19:24:38.340Z,5.04
2018-01-06T19:27:05.924Z,4.96
2018-01-06T19:29:33.536Z,4.99
2018-01-06T19:32:01.221Z,4.95
2018-01-06T19:34:28.816Z,4.96
2018-01-06T19:36:56.426Z,4.96
2018-01-06T19:39:24.002Z,5.01
2018-01-06T19:41:51.577Z,4.98
2018-01-06T19:44:19.215Z,4.94
2018-01-06T19:46:46.791Z,4.86
2018-01-06T19:49:14.360Z,4.78
2018-01-06T19:51:41.976Z,4.67
2018-01-06T19:54:09.543Z,4.57
2018-01-06T19:56:37.141Z,4.51
2018-01-06T19:59:04.760Z,4.50
2018-01-06T20:01:32.343Z,4.51
2018-01-06T20:03:59.913Z,4.54
2018-01-06T20:06:27.524Z,4.49
2018-01-06T20:08:55.089Z,4.48
2018-01-06T20:11:22.673Z,4.53
2018-01-06T20:13:50.281Z,4.45
2018-01-06T20:16:17.845Z,4.40
2018-01-06T20:18:45.406Z,4.38
2018-01-06T20:21:13.027Z,4.32
2018-01-06T20:23:40.720Z,4.18
2018-01-06T20:26:08.275Z,4.25
2018-01-06T20:28:35.913Z,4.18
2018-01-06T20:31:03.472Z,4.06
2018-01-06T20:33:31.073Z,4.00
2018-01-06T20:35:58.678Z,3.94
2018-01-06T20:38:26.259Z,3.88
2018-01-06T20:40:53.856Z,3.80
2018-01-06T20:43:21.461Z,3.81
2018-01-06T20:45:49.070Z,3.74
2018-01-06T20:48:16.643Z,3.73
2018-01-06T20:50:44.247Z,3.67
2018-01-06T20:53:11.823Z,3.69
2018-01-06T20:55:39.395Z,3.63
2018-01-06T20:58:07.034Z,3.55
2018-01-06T21:00:34.604Z,3.51
2018-01-06T21:03:02.469Z,3.46
2018-01-06T21:05:30.121Z,3.42
2018-01-06T21:07:57.710Z,3.41
2018-01-06T21:10:25.277Z,3.40
2018-01-06T21:12:52.881Z,3.41
2018-01-06T21:15:20.442Z,3.38
2018-01-06T21:17:48.075Z,3.38
2018-01-06T21:20:15.671Z,3.38
2018-01-06T21:22:43.257Z,3.36
2018-01-06T21:25:10.844Z,3.35
2018-01-06T21:27:38.442Z,3.29
2018-01-06T21:30:06.016Z,3.29
2018-01-06T21:32:33.588Z,3.26
2018-01-06T21:35:01.201Z,3.25
2018-01-06T21:37:28.776Z,3.23
2018-01-06T21:39:56.413Z,3.15
2018-01-06T21:42:24.018Z,3.12
2018-01-06T21:44:51.610Z,3.08
2018-01-06T21:47:19.169Z,3.06
2018-01-06T21:49:46.759Z,3.03
2018-01-06T21:52:14.389Z,2.99
2018-01-06T21:54:41.964Z,2.95
2018-01-06T21:57:09.574Z,2.95
2018-01-06T21:59:37.146Z,2.98
2018-01-06T22:02:04.735Z,2.92
2018-01-06T22:04:32.337Z,2.87
2018-01-06T22:06:59.898Z,2.84
2018-01-06T22:09:27.462Z,2.86
2018-01-06T22:11:55.066Z,2.84
2018-01-06T22:14:22.630Z,2.80
2018-01-06T22:16:50.211Z,2.83
2018-01-06T22:19:17.844Z,2.82
2018-01-06T22:21:45.428Z,2.78
2018-01-06T22:24:13.032Z,2.77
2018-01-06T22:26:40.639Z,2.77
2018-01-06T22:29:08.269Z,2.76
2018-01-06T22:31:36.042Z,2.70
2018-01-06T22:34:03.643Z,2.69
2018-01-06T22:36:31.227Z,2.68
2018-01-06T22:38:58.817Z,2.72
2018-01-06T22:41:26.424Z,2.59
2018-01-06T22:43:53.993Z,2.56
2018-01-06T22:46:21.583Z,2.59
2018-01-06T22:48:49.213Z,2.61
2018-01-06T22:51:16.958Z,2.68
2018-01-06T22:53:44.547Z,2.63
2018-01-06T22:56:12.180Z,2.63
2018-01-06T22:58:39.730Z,2.67
2018-01-06T23:01:07.334Z,2.72
2018-01-06T23:03:34.951Z,2.70
2018-01-06T23:06:02.516Z,2.67
2018-01-06T23:08:30.094Z,2.62
2018-01-06T23:10:57.692Z,2.63
2018-01-06T23:13:25.256Z,2.60
2018-01-06T23:15:52.849Z,2.51
2018-01-06T23:18:20.447Z,2.60
2018-01-06T23:20:48.048Z,2.62
2018-01-06T23:23:15.635Z,2.63
2018-01-06T23:25:43.222Z,2.61
2018-01-06T23:28:10.775Z,2.59
2018-01-06T23:30:38.333Z,2.56
2018-01-06T23:33:06.637Z,2.49
2018-01-06T23:35:34.217Z,2.43
2018-01-06T23:38:01.867Z,2.39
2018-01-06T23:40:29.491Z,2.35
2018-01-06T23:43:00.347Z,2.31
2018-01-06T23:45:28.179Z,2.32
2018-01-06T23:47:55.835Z,2.30
2018-01-06T23:50:23.416Z,2.31
2018-01-06T23:52:51.011Z,2.34
2018-01-06T23:55:18.655Z,2.19
2018-01-06T23:57:46.277Z,2.09
